Time;durP1;ratioP1;P1;durP2;ratioP2;P2;SDS_P1;SDS_P2;PMS_P1;PMS_P2;Temp;Humidity;BMP_temperature;BMP_pressure;BME280_temperature;BME280_humidity;BME280_pressure;Samples;Min_cycle;Max_cycle;Signal;HPM_P1;HPM_P2
2022/04/17 00:00:46;;;;;;;2.35;1.17;;;20.20;51.20;;;;;;5082076;28;20075;-72
2022/04/17 00:03:12;;;;;;;3.88;1.10;;;20.20;51.20;;;;;;5067370;28;20550;-72
2022/04/17 00:05:37;;;;;;;3.13;1.20;;;20.20;51.20;;;;;;5049613;28;20180;-72
2022/04/17 00:08:03;;;;;;;2.22;1.13;;;20.20;51.20;;;;;;5065809;28;20063;-72
2022/04/17 00:10:30;;;;;;;2.47;1.30;;;20.20;51.10;;;;;;5061435;28;20513;-72
2022/04/17 00:12:56;;;;;;;1.38;1.08;;;20.10;51.10;;;;;;5084299;28;20051;-74
2022/04/17 00:15:23;;;;;;;1.55;1.08;;;20.10;51.10;;;;;;5067713;28;20667;-74
2022/04/17 00:17:48;;;;;;;1.55;1.00;;;20.10;51.10;;;;;;5049651;28;20122;-74
2022/04/17 00:20:16;;;;;;;1.95;1.00;;;20.10;51.00;;;;;;5059148;28;20149;-73
2022/04/17 00:22:42;;;;;;;1.20;0.95;;;20.10;51.00;;;;;;5050917;28;20036;-72
2022/04/17 00:25:09;;;;;;;1.67;1.15;;;20.10;50.90;;;;;;5066578;28;20729;-73
2022/04/17 00:27:35;;;;;;;1.70;1.10;;;20.10;50.90;;;;;;5067760;28;20044;-74
2022/04/17 00:30:04;;;;;;;1.40;1.05;;;20.10;50.90;;;;;;5067187;28;20063;-74
2022/04/17 00:32:31;;;;;;;2.80;1.08;;;20.10;50.80;;;;;;5072207;28;20502;-73
2022/04/17 00:34:57;;;;;;;1.45;1.05;;;20.00;50.80;;;;;;5061981;28;20040;-74
2022/04/17 00:37:23;;;;;;;2.08;1.13;;;20.00;50.70;;;;;;5085663;28;20054;-73
2022/04/17 00:39:48;;;;;;;1.40;1.05;;;20.00;50.70;;;;;;5088033;28;20048;-74
2022/04/17 00:42:14;;;;;;;2.88;1.30;;;20.00;50.70;;;;;;5071336;28;20040;-74
2022/04/17 00:44:39;;;;;;;4.13;1.27;;;20.00;50.70;;;;;;5087878;28;20400;-75
2022/04/17 00:47:05;;;;;;;1.75;1.00;;;20.00;50.60;;;;;;5075218;28;20044;-72
2022/04/17 00:49:31;;;;;;;1.45;1.13;;;20.00;50.60;;;;;;5055956;28;20056;-73
2022/04/17 00:51:57;;;;;;;2.00;1.30;;;20.00;50.60;;;;;;5069497;28;20658;-72
2022/04/17 00:54:24;;;;;;;1.10;1.00;;;20.00;50.50;;;;;;5070551;28;20111;-74
2022/04/17 00:56:50;;;;;;;1.65;1.10;;;20.00;50.50;;;;;;5062376;28;20087;-73
2022/04/17 00:59:16;;;;;;;2.97;1.30;;;19.90;50.50;;;;;;5044131;28;20071;-74
2022/04/17 01:01:41;;;;;;;3.65;1.10;;;19.90;50.40;;;;;;5052785;28;20518;-75
2022/04/17 01:04:07;;;;;;;1.90;1.10;;;19.90;50.40;;;;;;5068850;28;20028;-74
2022/04/17 01:06:33;;;;;;;1.63;1.10;;;19.90;50.30;;;;;;5089038;28;20036;-77
2022/04/17 01:09:00;;;;;;;2.25;1.20;;;19.90;50.30;;;;;;5067622;28;20051;-83
2022/04/17 01:11:26;;;;;;;1.67;1.40;;;19.90;50.30;;;;;;5059971;28;20052;-82
2022/04/17 01:13:53;;;;;;;1.92;1.35;;;19.90;50.30;;;;;;5052711;28;20052;-81
2022/04/17 01:16:23;;;;;;;2.17;1.48;;;19.90;50.30;;;;;;5051747;28;20056;-83
2022/04/17 01:19:11;;;;;;;1.92;1.48;;;19.90;50.30;;;;;;5068806;28;20051;-78
2022/04/17 01:21:37;;;;;;;16.75;1.67;;;19.90;50.10;;;;;;5060285;28;20036;-76
2022/04/17 01:26:57;;;;;;;4.47;1.20;;;19.90;50.10;;;;;;5064272;28;20138;-76
2022/04/17 01:29:34;;;;;;;3.60;1.48;;;19.90;50.10;;;;;;5050578;28;20155;-82
2022/04/17 01:32:01;;;;;;;3.20;1.27;;;19.90;50.10;;;;;;5070292;28;20048;-81
2022/04/17 01:34:28;;;;;;;2.40;1.38;;;19.90;50.10;;;;;;5065702;28;20047;-74
2022/04/17 01:36:53;;;;;;;1.85;1.33;;;19.80;50.10;;;;;;5081465;28;20089;-75
2022/04/17 01:39:19;;;;;;;1.58;1.40;;;19.80;50.00;;;;;;5065769;28;20066;-73
2022/04/17 01:41:46;;;;;;;1.85;1.40;;;19.80;50.00;;;;;;5069648;28;20072;-74
2022/04/17 01:44:12;;;;;;;1.95;1.50;;;19.80;50.00;;;;;;5086053;28;20032;-74
2022/04/17 01:46:38;;;;;;;1.90;1.10;;;19.80;50.00;;;;;;5061090;28;20061;-73
2022/04/17 01:49:04;;;;;;;2.38;1.60;;;19.80;50.00;;;;;;5067722;28;20442;-73
2022/04/17 01:51:37;;;;;;;2.58;1.50;;;19.80;50.00;;;;;;5067708;28;20515;-75
2022/04/17 01:54:03;;;;;;;2.05;1.50;;;19.80;50.00;;;;;;5069896;28;20048;-73
2022/04/17 01:56:28;;;;;;;1.45;1.25;;;19.80;49.90;;;;;;5068166;28;20453;-74
2022/04/17 01:58:54;;;;;;;2.35;1.50;;;19.80;49.90;;;;;;5069037;28;20052;-73
2022/04/17 02:01:20;;;;;;;1.98;1.50;;;19.70;49.90;;;;;;5068101;28;20047;-73
2022/04/17 02:03:45;;;;;;;1.58;1.30;;;19.80;49.90;;;;;;5087610;28;20444;-74
2022/04/17 02:06:11;;;;;;;2.03;1.50;;;19.80;50.70;;;;;;5055108;28;20059;-75
2022/04/17 02:08:37;;;;;;;3.65;1.50;;;19.80;49.80;;;;;;5082119;28;20055;-71
2022/04/17 02:11:02;;;;;;;2.10;1.40;;;19.80;49.80;;;;;;5064490;28;20032;-70
2022/04/17 02:13:29;;;;;;;2.17;1.50;;;19.70;49.70;;;;;;5083394;28;20148;-69
2022/04/17 02:15:55;;;;;;;2.45;1.65;;;19.70;49.60;;;;;;5063385;28;20036;-70
2022/04/17 02:18:21;;;;;;;2.10;1.48;;;19.70;49.50;;;;;;5085297;28;20101;-72
2022/04/17 02:20:47;;;;;;;2.47;1.85;;;19.70;49.50;;;;;;5084671;28;20388;-71
2022/04/17 02:23:13;;;;;;;1.58;1.48;;;19.70;49.40;;;;;;5063824;28;20749;-70
2022/04/17 02:25:39;;;;;;;2.35;1.70;;;19.70;49.40;;;;;;5065935;28;20074;-70
2022/04/17 02:28:04;;;;;;;2.08;1.58;;;19.70;49.30;;;;;;5046116;28;20048;-74
2022/04/17 02:30:30;;;;;;;2.47;1.40;;;19.70;49.20;;;;;;5063115;28;20036;-74
2022/04/17 02:32:56;;;;;;;2.72;1.42;;;19.70;49.20;;;;;;5083698;28;20561;-73
2022/04/17 02:35:21;;;;;;;2.30;1.63;;;19.70;49.20;;;;;;5063830;28;20040;-74
2022/04/17 02:37:47;;;;;;;1.52;1.38;;;19.70;49.20;;;;;;5051753;28;20127;-75
2022/04/17 02:40:12;;;;;;;3.13;1.80;;;19.70;49.10;;;;;;5060238;28;20109;-75
2022/04/17 02:42:38;;;;;;;3.08;1.70;;;19.70;49.10;;;;;;5066387;28;20067;-73
2022/04/17 02:45:04;;;;;;;3.35;1.60;;;19.60;49.00;;;;;;5061543;28;20874;-71
2022/04/17 02:47:46;;;;;;;2.22;1.50;;;19.60;49.00;;;;;;5064963;28;20681;-71
2022/04/17 02:50:14;;;;;;;2.28;1.50;;;19.60;49.00;;;;;;5056379;28;20058;-71
2022/04/17 02:52:40;;;;;;;4.85;1.75;;;19.60;49.00;;;;;;5082716;28;20032;-72
2022/04/17 02:55:06;;;;;;;3.10;1.73;;;19.60;49.00;;;;;;5066960;28;20052;-71
2022/04/17 02:57:32;;;;;;;3.53;1.60;;;19.60;48.90;;;;;;5066084;28;20122;-71
2022/04/17 02:59:58;;;;;;;2.47;1.50;;;19.60;48.90;;;;;;5086076;28;20046;-72
2022/04/17 03:07:57;;;;;;;2.05;1.60;;;19.60;49.00;;;;;;5055580;28;20872;-71
2022/04/17 03:10:23;;;;;;;2.72;1.80;;;19.50;48.90;;;;;;5066652;28;20040;-71
2022/04/17 03:12:48;;;;;;;1.92;1.40;;;19.50;48.80;;;;;;5051458;28;20610;-72
2022/04/17 03:15:14;;;;;;;2.17;1.55;;;19.50;48.80;;;;;;5084109;28;20048;-72
2022/04/17 03:17:40;;;;;;;2.80;1.80;;;19.50;48.90;;;;;;5051445;28;20048;-71
2022/04/17 03:20:07;;;;;;;3.15;1.67;;;19.50;48.80;;;;;;5064747;28;20146;-72
2022/04/17 03:22:33;;;;;;;2.78;1.67;;;19.50;48.80;;;;;;5080074;28;20059;-71
2022/04/17 03:25:00;;;;;;;2.08;1.60;;;19.50;48.80;;;;;;5067589;28;20066;-71
2022/04/17 03:27:28;;;;;;;2.42;1.80;;;19.50;48.80;;;;;;5065538;28;20796;-73
2022/04/17 03:29:54;;;;;;;2.67;1.88;;;19.50;48.80;;;;;;5084674;28;20089;-71
2022/04/17 03:32:20;;;;;;;2.35;1.80;;;19.40;48.70;;;;;;5085462;28;20043;-72
2022/04/17 03:34:45;;;;;;;2.75;1.85;;;19.50;48.70;;;;;;5067395;28;20446;-71
2022/04/17 03:37:11;;;;;;;2.47;1.70;;;19.50;48.80;;;;;;5066978;28;20051;-71
2022/04/17 03:39:36;;;;;;;2.85;1.65;;;19.40;48.70;;;;;;5077825;28;20041;-72
2022/04/17 03:42:02;;;;;;;2.95;1.83;;;19.40;48.80;;;;;;5068041;28;20087;-71
2022/04/17 03:44:28;;;;;;;2.13;1.65;;;19.40;48.70;;;;;;5065924;28;20510;-72
2022/04/17 03:46:53;;;;;;;1.95;1.60;;;19.50;48.70;;;;;;5067592;28;20051;-71
2022/04/17 03:49:20;;;;;;;1.88;1.60;;;19.40;48.70;;;;;;5058310;28;20466;-71
2022/04/17 03:51:45;;;;;;;2.58;1.80;;;19.40;48.70;;;;;;5067052;28;20044;-72
2022/04/17 03:54:11;;;;;;;2.05;1.48;;;19.40;48.70;;;;;;5066591;28;20453;-70
2022/04/17 03:56:36;;;;;;;2.35;1.88;;;19.40;48.70;;;;;;5086496;28;20508;-72
2022/04/17 03:59:02;;;;;;;2.63;1.70;;;19.40;48.70;;;;;;5064955;28;20051;-71
2022/04/17 04:01:29;;;;;;;1.95;1.60;;;19.40;48.70;;;;;;5085338;28;20039;-72
2022/04/17 04:03:54;;;;;;;1.85;1.50;;;19.40;48.70;;;;;;5062221;28;20040;-72
2022/04/17 04:06:21;;;;;;;2.45;1.60;;;19.30;48.70;;;;;;5083411;28;20451;-71
2022/04/17 04:08:49;;;;;;;3.38;1.80;;;19.30;48.60;;;;;;5064080;28;20443;-70
2022/04/17 04:11:16;;;;;;;2.40;1.52;;;19.30;49.40;;;;;;5065030;28;20794;-70
2022/04/17 04:13:44;;;;;;;2.33;1.70;;;19.30;48.60;;;;;;5065202;28;20078;-71
2022/04/17 04:16:10;;;;;;;1.70;1.60;;;19.30;48.60;;;;;;5066462;28;20040;-71
2022/04/17 04:18:36;;;;;;;2.55;1.70;;;19.30;48.70;;;;;;5049826;28;20061;-72
2022/04/17 04:21:02;;;;;;;2.30;1.70;;;19.30;48.60;;;;;;5058026;28;20051;-71
2022/04/17 04:23:34;;;;;;;2.45;1.65;;;19.30;48.60;;;;;;5065765;28;20040;-72
2022/04/17 04:26:00;;;;;;;3.08;1.85;;;19.30;48.60;;;;;;5079363;28;20036;-72
2022/04/17 04:28:38;;;;;;;1.92;1.70;;;19.30;48.60;;;;;;5065063;28;20085;-72
2022/04/17 04:31:06;;;;;;;1.92;1.60;;;19.30;48.60;;;;;;5066388;28;20893;-74
2022/04/17 04:33:37;;;;;;;2.75;1.85;;;19.30;48.60;;;;;;5065789;28;20040;-72
2022/04/17 04:36:06;;;;;;;3.05;2.08;;;19.20;48.50;;;;;;5050208;28;20472;-73
2022/04/17 04:38:32;;;;;;;2.72;1.63;;;19.20;48.50;;;;;;5050412;28;20115;-71
2022/04/17 04:40:59;;;;;;;2.53;1.90;;;19.20;48.40;;;;;;5066474;28;20882;-71
2022/04/17 04:43:28;;;;;;;2.03;1.48;;;19.30;48.40;;;;;;5062188;28;20040;-71
2022/04/17 04:46:06;;;;;;;2.40;1.73;;;19.20;48.40;;;;;;5065551;28;20842;-71
2022/04/17 04:51:25;;;;;;;2.67;1.60;;;19.20;48.30;;;;;;5065919;28;20044;-72
2022/04/17 04:53:52;;;;;;;2.40;1.85;;;19.20;48.30;;;;;;5076909;28;20044;-72
2022/04/17 04:56:19;;;;;;;2.40;1.73;;;19.30;48.30;;;;;;5049933;28;20032;-72
2022/04/17 04:58:46;;;;;;;2.30;1.65;;;19.20;48.20;;;;;;5064814;28;20539;-71
2022/04/17 05:01:12;;;;;;;3.15;1.77;;;19.30;48.20;;;;;;5066812;28;20077;-72
2022/04/17 05:03:38;;;;;;;2.30;2.10;;;19.30;48.20;;;;;;5065576;28;20115;-71
2022/04/17 05:06:03;;;;;;;2.78;1.77;;;19.30;48.20;;;;;;5038525;28;20181;-71
2022/04/17 05:08:29;;;;;;;2.30;1.80;;;19.30;48.20;;;;;;5066715;28;20106;-72
2022/04/17 05:10:55;;;;;;;2.65;1.80;;;19.30;48.10;;;;;;5059548;28;20048;-71
2022/04/17 05:13:20;;;;;;;2.47;2.17;;;19.30;48.10;;;;;;5063982;28;20056;-71
2022/04/17 05:15:46;;;;;;;2.88;1.83;;;19.30;48.10;;;;;;5047851;28;20680;-72
2022/04/17 05:18:12;;;;;;;2.08;1.75;;;19.30;48.00;;;;;;5067168;28;20113;-73
2022/04/17 05:20:38;;;;;;;2.10;1.80;;;19.30;48.00;;;;;;5064065;28;20052;-71
2022/04/17 05:23:26;;;;;;;3.38;1.90;;;19.30;48.00;;;;;;5067275;28;20461;-70
2022/04/17 05:25:54;;;;;;;3.85;2.03;;;19.30;47.90;;;;;;5066227;28;20098;-71
2022/04/17 05:28:20;;;;;;;2.17;1.70;;;19.30;47.90;;;;;;5065316;28;20124;-71
2022/04/17 05:30:46;;;;;;;2.25;1.90;;;19.30;47.90;;;;;;5064597;28;20094;-71
2022/04/17 05:33:12;;;;;;;3.13;1.88;;;19.30;47.90;;;;;;5065018;28;20032;-72
2022/04/17 05:35:38;;;;;;;2.22;1.70;;;19.40;48.00;;;;;;5060735;28;20052;-72
2022/04/17 05:38:05;;;;;;;2.70;1.85;;;19.30;47.80;;;;;;5064279;28;20056;-72
2022/04/17 05:40:47;;;;;;;2.53;1.83;;;19.30;47.80;;;;;;5067132;28;20119;-71
2022/04/17 05:43:13;;;;;;;2.67;1.92;;;19.40;47.80;;;;;;5067728;28;20044;-71
2022/04/17 05:45:39;;;;;;;3.05;2.20;;;19.30;47.80;;;;;;5065320;28;20047;-72
2022/04/17 05:48:07;;;;;;;2.45;1.88;;;19.40;47.80;;;;;;5065500;28;20033;-72
2022/04/17 05:50:33;;;;;;;4.32;2.00;;;19.40;47.80;;;;;;5065301;28;20041;-71
2022/04/17 05:52:59;;;;;;;2.30;1.88;;;19.40;47.80;;;;;;5065194;28;20449;-72
2022/04/17 05:55:25;;;;;;;4.82;2.22;;;19.40;47.80;;;;;;5045745;28;20131;-72
2022/04/17 05:57:50;;;;;;;5.90;2.00;;;19.40;48.00;;;;;;5066651;28;20053;-72
2022/04/17 06:00:16;;;;;;;2.72;2.10;;;19.40;48.10;;;;;;5058325;28;20029;-72
2022/04/17 06:02:46;;;;;;;5.40;1.70;;;19.40;48.20;;;;;;5067300;28;20145;-72
2022/04/17 06:05:13;;;;;;;4.55;2.00;;;19.40;48.40;;;;;;5065567;28;20500;-74
2022/04/17 06:07:40;;;;;;;3.15;2.10;;;19.50;48.60;;;;;;5051017;28;20055;-73
2022/04/17 06:10:07;;;;;;;2.83;2.03;;;19.50;48.60;;;;;;5062788;28;20845;-73
2022/04/17 06:12:34;;;;;;;2.40;2.10;;;19.50;48.70;;;;;;5066325;28;20148;-72
2022/04/17 06:15:00;;;;;;;3.55;2.20;;;19.50;48.80;;;;;;5060386;28;20049;-74
2022/04/17 06:17:26;;;;;;;3.22;2.10;;;19.50;48.80;;;;;;5068817;28;20028;-71
2022/04/17 06:19:51;;;;;;;3.05;2.10;;;19.50;48.90;;;;;;5066067;28;20056;-72
2022/04/17 06:22:20;;;;;;;3.05;2.13;;;19.50;49.00;;;;;;5064939;28;20045;-75
2022/04/17 06:24:45;;;;;;;2.05;1.77;;;19.60;49.20;;;;;;5085074;28;20468;-72
2022/04/17 06:27:11;;;;;;;3.47;2.33;;;19.60;49.20;;;;;;5056522;28;20136;-75
2022/04/17 06:29:37;;;;;;;3.10;2.10;;;19.60;49.30;;;;;;5079148;28;20670;-73
2022/04/17 06:32:02;;;;;;;3.10;2.03;;;19.70;49.40;;;;;;5069351;28;20377;-78
2022/04/17 06:34:28;;;;;;;2.83;2.15;;;19.70;49.60;;;;;;5084763;28;20518;-76
2022/04/17 06:36:53;;;;;;;4.22;2.20;;;19.70;49.60;;;;;;5068376;28;20408;-78
2022/04/17 06:39:19;;;;;;;2.95;2.10;;;19.80;49.60;;;;;;5068482;28;20035;-78
2022/04/17 06:41:45;;;;;;;4.40;2.40;;;19.80;49.70;;;;;;5085731;28;20047;-77
2022/04/17 06:44:11;;;;;;;2.92;2.15;;;19.80;49.70;;;;;;5069033;28;20579;-79
2022/04/17 06:46:40;;;;;;;2.78;2.28;;;19.90;49.90;;;;;;5067234;28;20036;-77
2022/04/17 06:49:09;;;;;;;3.92;2.30;;;19.90;49.90;;;;;;5066714;28;20083;-73
2022/04/17 06:51:34;;;;;;;4.28;2.40;;;20.00;50.00;;;;;;5056208;28;20052;-78
2022/04/17 06:54:00;;;;;;;2.60;1.90;;;20.00;49.90;;;;;;5067543;28;20040;-75
2022/04/17 06:56:26;;;;;;;3.38;2.30;;;20.10;49.90;;;;;;5068088;28;20075;-79
2022/04/17 06:58:51;;;;;;;3.45;2.40;;;20.10;49.90;;;;;;5062927;28;20059;-73
2022/04/17 07:01:20;;;;;;;4.55;2.40;;;20.10;49.90;;;;;;5079679;28;20040;-76
2022/04/17 07:03:47;;;;;;;3.97;2.35;;;20.20;49.90;;;;;;5060669;28;20040;-72
2022/04/17 07:06:12;;;;;;;3.92;2.25;;;20.30;50.70;;;;;;5059578;28;20119;-73
2022/04/17 07:08:38;;;;;;;3.05;2.20;;;20.30;49.90;;;;;;5081394;28;20154;-74
2022/04/17 07:11:04;;;;;;;2.75;2.20;;;20.40;49.90;;;;;;5066506;28;20074;-75
2022/04/17 07:13:30;;;;;;;3.60;2.35;;;20.40;49.90;;;;;;5064932;28;20060;-70
2022/04/17 07:15:56;;;;;;;4.15;2.65;;;20.40;49.70;;;;;;5067297;28;20131;-75
2022/04/17 07:18:22;;;;;;;5.57;2.55;;;20.50;49.50;;;;;;5067485;28;20040;-74
2022/04/17 07:20:49;;;;;;;6.60;2.55;;;20.50;49.20;;;;;;5083672;28;20060;-76
2022/04/17 07:23:15;;;;;;;7.20;2.65;;;20.50;49.00;;;;;;5063800;28;20062;-73
2022/04/17 07:25:41;;;;;;;6.40;2.90;;;20.50;48.90;;;;;;5067410;28;20044;-72
2022/04/17 07:28:14;;;;;;;4.40;2.80;;;20.60;48.80;;;;;;5067620;28;20068;-71
2022/04/17 07:30:40;;;;;;;3.63;2.60;;;20.60;48.70;;;;;;5082161;28;20044;-74
2022/04/17 07:33:05;;;;;;;4.72;2.72;;;20.60;48.70;;;;;;5066276;28;20032;-71
2022/04/17 07:35:31;;;;;;;5.57;2.92;;;20.60;48.60;;;;;;5041908;28;20560;-71
2022/04/17 07:37:59;;;;;;;6.70;3.20;;;20.70;48.60;;;;;;5064127;28;20036;-74
2022/04/17 07:40:33;;;;;;;9.15;2.95;;;20.70;48.60;;;;;;5046818;28;20036;-73
2022/04/17 07:43:01;;;;;;;9.90;3.30;;;20.70;48.60;;;;;;5066747;28;20074;-73
2022/04/17 07:45:28;;;;;;;6.15;3.08;;;20.70;48.80;;;;;;5061226;28;20203;-76
2022/04/17 07:47:54;;;;;;;3.67;2.90;;;20.80;49.10;;;;;;5065041;28;20126;-74
2022/04/17 07:50:27;;;;;;;4.20;2.97;;;20.80;49.30;;;;;;5064261;28;20127;-74
2022/04/17 07:52:54;;;;;;;6.10;3.30;;;20.80;49.40;;;;;;5057285;28;20039;-72
2022/04/17 07:55:20;;;;;;;6.03;3.20;;;20.90;49.50;;;;;;5083566;28;20243;-74
2022/04/17 08:00:27;;;;;;;4.10;3.10;;;20.90;49.50;;;;;;5064352;28;20447;-77
2022/04/17 08:03:07;;;;;;;3.83;2.80;;;20.90;49.50;;;;;;5062779;28;20137;-74
2022/04/17 08:05:39;;;;;;;5.55;3.00;;;20.90;49.50;;;;;;5065129;28;20064;-74
2022/04/17 08:08:09;;;;;;;6.60;3.15;;;21.00;49.50;;;;;;5064874;28;20044;-73
2022/04/17 08:10:35;;;;;;;6.72;3.40;;;21.00;49.50;;;;;;5066766;28;20484;-74
2022/04/17 08:13:01;;;;;;;8.13;3.20;;;21.00;49.40;;;;;;5066315;28;20052;-73
2022/04/17 08:15:27;;;;;;;6.07;3.38;;;21.00;49.40;;;;;;5051944;28;20087;-73
2022/04/17 08:17:52;;;;;;;5.53;2.97;;;21.00;49.30;;;;;;5080994;28;20044;-73
2022/04/17 08:20:18;;;;;;;4.90;2.90;;;21.10;49.30;;;;;;5068089;28;20048;-73
2022/04/17 08:22:44;;;;;;;5.93;3.42;;;21.10;49.20;;;;;;5059714;28;20045;-71
2022/04/17 08:25:09;;;;;;;6.25;2.97;;;21.10;49.10;;;;;;5080900;28;20056;-73
2022/04/17 08:27:51;;;;;;;4.75;3.22;;;21.10;48.80;;;;;;5081787;28;20044;-74
2022/04/17 08:30:27;;;;;;;6.60;2.92;;;21.10;48.60;;;;;;5054552;28;20054;-73
2022/04/17 08:32:53;;;;;;;6.18;3.38;;;21.10;48.60;;;;;;5050941;28;20516;-73
2022/04/17 08:35:19;;;;;;;5.20;3.40;;;21.20;48.60;;;;;;5063405;28;20040;-70
2022/04/17 08:37:46;;;;;;;6.57;3.38;;;21.20;48.60;;;;;;5082711;28;20044;-71
2022/04/17 08:40:12;;;;;;;5.45;3.03;;;21.20;48.60;;;;;;5066025;28;20036;-70
2022/04/17 08:42:39;;;;;;;6.50;3.50;;;21.20;48.50;;;;;;5065643;28;20093;-71
2022/04/17 08:45:09;;;;;;;6.20;3.60;;;21.20;48.50;;;;;;5053548;28;20621;-72
2022/04/17 08:47:36;;;;;;;6.53;3.25;;;21.30;48.50;;;;;;5063622;28;20552;-71
2022/04/17 08:50:05;;;;;;;6.40;3.38;;;21.30;48.40;;;;;;5070220;28;20096;-72
2022/04/17 08:52:31;;;;;;;;;;;21.30;48.30;;;;;;5051728;28;20032;-73
2022/04/17 08:54:59;;;;;;;5.38;3.35;;;21.30;48.20;;;;;;5063097;28;19920;-71
2022/04/17 08:57:25;;;;;;;5.25;3.05;;;21.30;48.30;;;;;;5057574;28;20056;-76
2022/04/17 08:59:50;;;;;;;6.38;3.30;;;21.40;48.20;;;;;;5063920;28;20403;-73
2022/04/17 09:02:17;;;;;;;5.68;3.17;;;21.40;48.20;;;;;;5063192;28;20399;-71
2022/04/17 09:04:43;;;;;;;4.40;3.28;;;21.40;48.20;;;;;;5067142;28;20044;-75
2022/04/17 09:07:10;;;;;;;4.63;3.10;;;21.40;48.30;;;;;;5063779;28;20032;-71
2022/04/17 09:09:40;;;;;;;9.50;3.38;;;21.40;48.20;;;;;;5062359;28;20120;-71
2022/04/17 09:12:06;;;;;;;4.63;3.20;;;21.40;48.10;;;;;;5061276;28;20047;-70
2022/04/17 09:14:38;;;;;;;6.68;3.47;;;21.50;48.10;;;;;;5051852;28;20052;-70
2022/04/17 09:17:09;;;;;;;6.43;3.03;;;21.50;48.10;;;;;;5044173;28;20400;-71
2022/04/17 09:19:35;;;;;;;5.93;3.38;;;21.50;48.00;;;;;;5064212;28;20036;-69
2022/04/17 09:22:01;;;;;;;7.15;3.40;;;21.50;48.00;;;;;;5078246;28;20052;-71
2022/04/17 09:24:27;;;;;;;6.38;3.70;;;21.50;48.00;;;;;;5078248;28;20521;-71
2022/04/17 09:26:55;;;;;;;7.47;3.22;;;21.60;48.00;;;;;;5083161;28;20040;-72
2022/04/17 09:29:24;;;;;;;5.35;3.40;;;21.50;48.00;;;;;;5079718;28;20044;-72
2022/04/17 09:31:58;;;;;;;5.13;3.10;;;21.60;48.10;;;;;;5063211;28;20044;-70
2022/04/17 09:34:24;;;;;;;7.25;3.53;;;21.60;47.90;;;;;;5067378;28;20059;-70
2022/04/17 09:36:59;;;;;;;6.05;3.17;;;21.60;47.80;;;;;;5047762;28;20040;-71
2022/04/17 09:39:33;;;;;;;7.07;3.30;;;21.60;47.60;;;;;;5065355;28;20398;-70
2022/04/17 09:42:01;;;;;;;6.97;3.42;;;21.60;47.50;;;;;;5067889;28;20051;-71
2022/04/17 09:44:37;;;;;;;5.22;2.90;;;21.60;47.50;;;;;;5066748;28;20036;-71
2022/04/17 09:47:05;;;;;;;3.90;3.03;;;21.60;47.50;;;;;;5053041;28;20443;-71
2022/04/17 09:49:30;;;;;;;5.75;3.40;;;21.60;47.50;;;;;;5079124;28;20041;-69
2022/04/17 09:52:09;;;;;;;5.90;2.95;;;21.60;47.50;;;;;;5059909;28;20135;-70
2022/04/17 09:54:35;;;;;;;6.05;3.20;;;21.60;47.40;;;;;;5053487;28;20404;-70
2022/04/17 09:57:01;;;;;;;3.88;2.88;;;21.60;47.50;;;;;;5058107;28;20058;-71
2022/04/17 09:59:27;;;;;;;5.78;2.80;;;21.70;47.50;;;;;;5067090;28;20094;-78
2022/04/17 10:01:57;;;;;;;4.35;2.97;;;21.70;47.50;;;;;;5054085;28;20040;-74
2022/04/17 10:04:24;;;;;;;7.20;2.90;;;21.70;47.40;;;;;;5069368;28;20123;-76
2022/04/17 10:06:52;;;;;;;4.97;2.90;;;21.70;47.30;;;;;;5049265;28;20055;-74
2022/04/17 10:09:19;;;;;;;6.38;2.72;;;21.70;47.20;;;;;;5087399;28;20278;-72
2022/04/17 10:11:46;;;;;;;4.07;2.88;;;21.70;47.10;;;;;;5070285;28;20044;-75
2022/04/17 10:14:12;;;;;;;4.97;3.10;;;21.70;47.00;;;;;;5065843;28;20093;-74
2022/04/17 10:16:43;;;;;;;6.82;2.90;;;21.70;47.00;;;;;;5076506;28;20035;-75
2022/04/17 10:19:16;;;;;;;4.65;2.60;;;21.70;47.00;;;;;;5059219;28;20171;-73
2022/04/17 10:21:42;;;;;;;8.25;3.05;;;21.80;46.90;;;;;;5059135;28;20071;-70
2022/04/17 10:24:16;;;;;;;5.82;3.05;;;21.70;46.80;;;;;;5062846;28;20078;-71
2022/04/17 10:26:47;;;;;;;4.05;2.60;;;21.80;46.60;;;;;;5077327;28;20037;-72
2022/04/17 10:29:25;;;;;;;6.80;2.58;;;21.80;46.50;;;;;;5057157;28;20074;-71
2022/04/17 10:32:06;;;;;;;3.88;3.00;;;21.80;46.10;;;;;;5041465;28;20052;-72
2022/04/17 10:34:43;;;;;;;5.55;2.90;;;21.80;46.20;;;;;;5055241;28;20087;-72
2022/04/17 10:37:37;;;;;;;3.50;2.40;;;21.70;45.90;;;;;;5078075;28;20428;-73
2022/04/17 10:40:04;;;;;;;5.35;2.55;;;21.80;46.00;;;;;;5055084;28;20045;-74
2022/04/17 10:42:53;;;;;;;4.95;2.70;;;21.70;45.90;;;;;;5079925;28;20048;-72
2022/04/17 10:45:18;;;;;;;5.80;3.00;;;21.80;45.90;;;;;;5059028;28;20133;-72
2022/04/17 10:48:05;;;;;;;9.18;3.00;;;21.80;46.00;;;;;;5060445;28;20044;-77
2022/04/17 10:50:49;;;;;;;7.20;3.30;;;21.80;46.00;;;;;;5055899;28;20834;-79
2022/04/17 10:53:29;;;;;;;10.73;3.35;;;21.80;46.20;;;;;;5049332;28;20061;-72
2022/04/17 10:56:21;;;;;;;7.85;3.03;;;21.80;46.20;;;;;;5053096;28;20044;-84
2022/04/17 10:58:55;;;;;;;10.63;3.33;;;21.80;46.40;;;;;;5053099;28;20071;-74
2022/04/17 11:01:42;;;;;;;9.65;3.28;;;21.80;46.40;;;;;;5053586;28;20062;-75
2022/04/17 11:04:29;;;;;;;8.63;3.20;;;21.80;46.50;;;;;;5043441;28;20091;-77
2022/04/17 11:07:07;;;;;;;9.93;3.45;;;21.80;46.50;;;;;;5042404;28;20033;-74
2022/04/17 11:09:33;;;;;;;;;;;21.90;46.70;;;;;;5062394;28;20059;-77
2022/04/17 11:12:18;;;;;;;7.25;3.78;;;21.80;46.50;;;;;;5075771;28;19934;-73
2022/04/17 11:15:01;;;;;;;8.77;3.80;;;21.80;46.50;;;;;;5074168;28;20044;-76
2022/04/17 11:17:31;;;;;;;7.68;3.47;;;21.80;46.30;;;;;;5058422;28;20108;-73
2022/04/17 11:19:58;;;;;;;7.05;3.28;;;21.80;46.30;;;;;;5038622;28;20040;-73
2022/04/17 11:22:32;;;;;;;12.93;3.60;;;21.90;46.30;;;;;;5055808;28;20048;-75
2022/04/17 11:24:58;;;;;;;6.30;3.00;;;21.90;46.20;;;;;;5060853;28;20101;-73
2022/04/17 11:27:45;;;;;;;11.15;3.22;;;21.80;46.20;;;;;;5067013;28;20044;-76
2022/04/17 11:30:13;;;;;;;8.18;3.47;;;21.80;46.20;;;;;;5058021;28;20055;-74
2022/04/17 11:32:46;;;;;;;5.47;3.08;;;21.90;46.20;;;;;;5066269;28;20127;-73
2022/04/17 11:35:22;;;;;;;5.30;2.80;;;21.90;46.10;;;;;;5063659;28;20453;-74
2022/04/17 11:37:52;;;;;;;6.13;2.58;;;21.80;46.00;;;;;;5058659;28;20089;-74
2022/04/17 11:40:19;;;;;;;7.63;2.67;;;21.80;45.80;;;;;;5042131;28;20048;-74
2022/04/17 11:42:54;;;;;;;5.13;3.00;;;21.80;45.80;;;;;;5054828;28;20127;-73
2022/04/17 11:45:28;;;;;;;6.72;3.20;;;21.80;45.60;;;;;;5060134;28;20051;-74
2022/04/17 11:47:55;;;;;;;5.32;2.60;;;21.80;45.40;;;;;;5057805;28;20048;-73
2022/04/17 11:50:22;;;;;;;5.57;2.83;;;21.80;45.30;;;;;;5053011;28;20214;-74
2022/04/17 11:52:50;;;;;;;6.97;3.28;;;21.80;45.20;;;;;;5042512;28;20050;-72
2022/04/17 11:55:15;;;;;;;5.13;2.90;;;21.80;45.10;;;;;;5057241;28;20519;-74
2022/04/17 11:57:41;;;;;;;4.07;2.45;;;21.80;45.00;;;;;;5054855;28;20055;-73
2022/04/17 12:00:08;;;;;;;5.03;2.65;;;21.90;45.00;;;;;;5040954;28;20175;-73
2022/04/17 12:02:33;;;;;;;4.38;2.45;;;21.80;44.90;;;;;;5054439;28;20044;-73
2022/04/17 12:05:08;;;;;;;6.30;2.70;;;21.90;44.90;;;;;;5057884;28;20063;-72
2022/04/17 12:07:34;;;;;;;4.72;2.60;;;21.90;44.70;;;;;;5051287;28;20416;-73
2022/04/17 12:10:05;;;;;;;6.30;2.70;;;21.90;44.50;;;;;;5057728;28;20380;-75
2022/04/17 12:12:39;;;;;;;4.68;2.67;;;21.90;44.40;;;;;;5056461;28;20056;-74
2022/04/17 12:15:06;;;;;;;3.25;2.40;;;21.90;44.30;;;;;;5056354;28;20063;-73
2022/04/17 12:17:33;;;;;;;6.30;2.58;;;22.00;44.30;;;;;;5077629;28;20226;-73
2022/04/17 12:19:59;;;;;;;7.00;2.60;;;22.00;44.10;;;;;;5041138;28;20059;-73
2022/04/17 12:22:26;;;;;;;6.47;2.70;;;22.10;44.10;;;;;;5057017;28;20044;-73
2022/04/17 12:24:52;;;;;;;4.80;2.70;;;22.10;44.20;;;;;;5066867;28;20506;-75
2022/04/17 12:27:20;;;;;;;4.43;2.45;;;22.50;44.00;;;;;;5066657;28;20251;-74
2022/04/17 12:29:47;;;;;;;5.15;2.35;;;23.10;43.20;;;;;;5084977;28;20760;-72
2022/04/17 12:32:17;;;;;;;6.25;2.60;;;23.80;41.90;;;;;;5071241;28;20140;-72
2022/04/17 12:34:45;;;;;;;4.05;2.25;;;24.40;40.60;;;;;;5063688;28;20127;-73
2022/04/17 12:37:32;;;;;;;6.50;2.80;;;25.00;39.70;;;;;;5077690;28;20044;-75
2022/04/17 12:40:18;;;;;;;5.00;2.30;;;25.50;38.70;;;;;;5046469;28;20052;-73
2022/04/17 12:42:44;;;;;;;4.60;2.38;;;26.00;38.00;;;;;;5066376;28;20056;-71
2022/04/17 12:45:21;;;;;;;3.00;2.10;;;26.30;37.60;;;;;;5060662;28;20535;-73
2022/04/17 12:48:07;;;;;;;5.93;2.60;;;26.60;37.20;;;;;;5043951;28;20102;-75
2022/04/17 12:50:33;;;;;;;3.78;2.30;;;27.00;36.60;;;;;;5078787;28;20286;-72
2022/04/17 12:53:00;;;;;;;3.33;2.00;;;27.30;36.30;;;;;;5065176;28;20036;-72
2022/04/17 12:55:34;;;;;;;6.85;2.20;;;27.50;35.70;;;;;;5060314;28;20044;-72
2022/04/17 12:58:01;;;;;;;3.17;2.15;;;27.80;35.00;;;;;;5065849;28;20105;-74
2022/04/17 13:00:28;;;;;;;3.70;2.00;;;28.00;34.80;;;;;;5064664;28;20032;-78
2022/04/17 13:03:11;;;;;;;3.25;2.00;;;28.20;34.70;;;;;;5065529;28;20063;-76
2022/04/17 13:05:36;;;;;;;4.97;2.30;;;28.40;34.00;;;;;;5054022;28;20047;-77
2022/04/17 13:08:09;;;;;;;5.50;2.35;;;28.50;33.50;;;;;;5063650;28;21596;-80